Time;durP1;ratioP1;P1;durP2;ratioP2;P2;SDS_P1;SDS_P2;PMS_P1;PMS_P2;Temp;Humidity;BMP_temperature;BMP_pressure;BME280_temperature;BME280_humidity;BME280_pressure;Samples;Min_cycle;Max_cycle;Signal;HPM_P1;HPM_P2
2022/12/17 13:06:52;;;;;;;43.03;19.63;;;0.00;99.90;;;;;;5052891;28;20095;-73
2022/12/17 13:09:27;;;;;;;47.53;20.65;;;0.10;99.90;;;;;;5052744;28;20052;-72
2022/12/17 13:11:59;;;;;;;52.60;20.88;;;0.20;99.90;;;;;;5054648;28;20362;-73
2022/12/17 13:14:44;;;;;;;44.08;20.02;;;0.20;99.90;;;;;;5053574;28;20436;-72
2022/12/17 13:17:13;;;;;;;50.28;21.48;;;-0.20;99.90;;;;;;5054341;28;20492;-72
2022/12/17 13:19:58;;;;;;;45.95;20.98;;;0.40;99.90;;;;;;5053763;28;20093;-73
2022/12/17 13:22:24;;;;;;;46.53;19.98;;;0.10;99.90;;;;;;5054235;28;20091;-73
2022/12/17 13:24:55;;;;;;;46.25;20.05;;;0.30;99.90;;;;;;5052718;28;20083;-72
2022/12/17 13:27:33;;;;;;;45.22;20.23;;;0.30;99.90;;;;;;5054446;28;20049;-73
2022/12/17 13:30:17;;;;;;;47.58;21.50;;;2.10;99.90;;;;;;5053492;28;20407;-75
2022/12/17 13:33:13;;;;;;;46.20;20.27;;;-0.40;99.90;;;;;;5053054;28;20424;-73
2022/12/17 13:36:16;;;;;;;50.53;20.80;;;-0.10;99.90;;;;;;5052828;28;20389;-72
2022/12/17 13:38:48;;;;;;;46.17;19.73;;;-0.20;99.90;;;;;;5040923;28;20061;-74
2022/12/17 13:41:18;;;;;;;50.90;21.42;;;-0.20;99.90;;;;;;5053125;28;20056;-73
2022/12/17 13:44:12;;;;;;;51.13;21.45;;;-0.10;99.90;;;;;;5052747;28;20089;-74
2022/12/17 13:46:43;;;;;;;46.80;19.77;;;0.10;99.90;;;;;;5052001;28;20056;-73
2022/12/17 13:49:29;;;;;;;44.80;19.33;;;0.30;99.90;;;;;;5054005;28;20048;-73
2022/12/17 13:52:06;;;;;;;47.22;20.70;;;0.30;99.90;;;;;;5053471;28;20048;-74
2022/12/17 13:54:32;;;;;;;46.50;19.83;;;-0.10;99.90;;;;;;5053906;28;20047;-73
2022/12/17 13:57:15;;;;;;;47.72;20.45;;;0.00;99.90;;;;;;5052637;28;20056;-74
2022/12/17 13:59:52;;;;;;;45.55;20.70;;;0.40;99.90;;;;;;5052452;28;20389;-74
2022/12/17 14:02:30;;;;;;;46.17;20.50;;;0.10;99.90;;;;;;5035719;28;20049;-74
2022/12/17 14:04:58;;;;;;;44.55;20.48;;;1.70;99.90;;;;;;5052807;28;20045;-74
2022/12/17 14:07:26;;;;;;;40.45;17.95;;;0.20;99.90;;;;;;5053164;28;20045;-74
2022/12/17 14:09:53;;;;;;;45.30;20.67;;;0.90;99.90;;;;;;5052444;28;20049;-75
2022/12/17 14:12:22;;;;;;;45.17;19.83;;;-0.30;99.90;;;;;;5053907;28;20053;-74
2022/12/17 14:14:55;;;;;;;45.35;19.65;;;-0.10;99.90;;;;;;5054965;28;20087;-74
2022/12/17 14:17:23;;;;;;;;;;;0.00;99.90;;;;;;5057522;28;20053;-74
2022/12/17 14:19:57;;;;;;;46.45;20.33;;;-0.20;99.90;;;;;;5057565;28;19931;-74
2022/12/17 14:22:32;;;;;;;46.00;20.25;;;0.10;99.90;;;;;;5055816;28;20048;-74
2022/12/17 14:24:59;;;;;;;46.13;19.88;;;0.80;99.90;;;;;;5057295;28;20102;-74
2022/12/17 14:27:31;;;;;;;44.03;19.50;;;-0.30;99.90;;;;;;5056961;28;20045;-75
2022/12/17 14:29:56;;;;;;;46.38;21.08;;;0.40;99.90;;;;;;5057468;28;20091;-74
2022/12/17 14:32:25;;;;;;;44.60;19.77;;;-0.30;99.90;;;;;;5055732;28;20053;-75
2022/12/17 14:34:51;;;;;;;43.53;18.83;;;0.20;99.90;;;;;;5056753;28;20099;-75
2022/12/17 14:37:25;;;;;;;39.63;19.08;;;0.30;99.90;;;;;;5056683;28;20049;-74
2022/12/17 14:39:54;;;;;;;48.00;21.52;;;-0.10;99.90;;;;;;5056768;28;20045;-74
2022/12/17 14:42:28;;;;;;;45.17;18.88;;;1.00;99.90;;;;;;5057066;28;20431;-74
2022/12/17 14:45:01;;;;;;;46.70;20.52;;;-0.20;99.90;;;;;;5056807;28;20075;-75
2022/12/17 14:47:37;;;;;;;51.17;20.40;;;-0.20;99.90;;;;;;5056742;28;20439;-73
2022/12/17 14:50:12;;;;;;;48.47;20.80;;;-0.30;99.90;;;;;;5054860;28;20053;-76
2022/12/17 14:52:39;;;;;;;46.13;19.30;;;-0.10;99.90;;;;;;5054848;28;20037;-74
2022/12/17 14:55:27;;;;;;;44.50;19.80;;;-0.40;99.90;;;;;;5055875;28;20037;-71
2022/12/17 14:58:06;;;;;;;48.60;20.50;;;-0.40;99.90;;;;;;5054958;28;20041;-73
2022/12/17 15:00:32;;;;;;;46.97;20.65;;;0.30;99.90;;;;;;5055075;28;20385;-72
2022/12/17 15:02:58;;;;;;;43.67;18.90;;;0.80;99.90;;;;;;5054456;28;20518;-73
2022/12/17 15:05:24;;;;;;;44.75;18.75;;;-0.20;99.90;;;;;;5054608;28;20076;-73
2022/12/17 15:07:50;;;;;;;44.78;20.35;;;0.00;99.90;;;;;;5038062;28;20041;-74
2022/12/17 15:10:19;;;;;;;42.15;19.15;;;-0.50;99.90;;;;;;5055629;28;20051;-73
2022/12/17 15:12:45;;;;;;;44.85;19.45;;;-0.10;99.90;;;;;;5054512;28;20045;-73
2022/12/17 15:15:13;;;;;;;50.08;20.73;;;0.00;99.90;;;;;;5037479;28;20110;-73
2022/12/17 15:17:38;;;;;;;48.08;18.15;;;-0.30;99.90;;;;;;5037583;28;20057;-72
2022/12/17 15:20:04;;;;;;;46.42;20.77;;;-0.60;99.90;;;;;;5055163;28;20056;-73
2022/12/17 15:22:30;;;;;;;45.35;19.38;;;-0.50;99.90;;;;;;5055379;28;20045;-72
2022/12/17 15:24:56;;;;;;;45.50;20.10;;;-0.30;99.90;;;;;;5054803;28;20055;-72
2022/12/17 15:27:21;;;;;;;45.00;19.67;;;0.70;99.90;;;;;;5055283;28;20051;-72
2022/12/17 15:29:47;;;;;;;52.15;21.60;;;-0.60;99.90;;;;;;5055203;28;20052;-72
2022/12/17 15:32:19;;;;;;;52.08;21.42;;;-0.50;99.90;;;;;;5054418;28;20062;-72
2022/12/17 15:34:45;;;;;;;47.15;18.95;;;-0.30;99.90;;;;;;5054134;28;20053;-73
2022/12/17 15:37:10;;;;;;;52.40;20.90;;;0.70;99.90;;;;;;5053832;28;20080;-72
2022/12/17 15:39:36;;;;;;;48.50;20.75;;;0.70;99.90;;;;;;5055081;28;20083;-73
2022/12/17 15:44:46;;;;;;;46.42;20.25;;;-0.60;99.90;;;;;;5055740;28;20057;-75
2022/12/17 15:47:11;;;;;;;49.70;19.45;;;-0.70;99.90;;;;;;5053825;28;20049;-72
2022/12/17 15:49:37;;;;;;;46.70;19.65;;;-0.30;99.90;;;;;;5053330;28;20053;-72
2022/12/17 15:52:03;;;;;;;46.00;20.35;;;0.20;99.90;;;;;;5036996;28;20045;-73
2022/12/17 15:54:29;;;;;;;49.42;18.85;;;-0.30;99.90;;;;;;5036972;28;20063;-73
2022/12/17 15:56:55;;;;;;;52.65;20.15;;;-0.70;99.90;;;;;;5055021;28;20080;-74
2022/12/17 15:59:21;;;;;;;51.35;18.33;;;-0.10;99.90;;;;;;5054782;28;20037;-74
2022/12/17 16:01:47;;;;;;;44.50;17.65;;;-0.10;99.90;;;;;;5054386;28;20056;-71
2022/12/17 16:04:12;;;;;;;42.85;17.02;;;-0.50;99.90;;;;;;5055067;28;20045;-74
2022/12/17 16:06:38;;;;;;;42.63;18.23;;;-0.30;99.90;;;;;;5054761;28;20057;-75
2022/12/17 16:09:04;;;;;;;46.20;18.70;;;0.10;99.90;;;;;;5052966;28;20507;-73
2022/12/17 16:11:29;;;;;;;43.78;17.67;;;-0.50;99.90;;;;;;5053272;28;20049;-72
2022/12/17 16:13:55;;;;;;;40.90;17.55;;;-0.60;99.90;;;;;;5054695;28;20393;-72
2022/12/17 16:16:22;;;;;;;46.80;19.63;;;-0.70;99.90;;;;;;5036657;28;20053;-72
2022/12/17 16:18:48;;;;;;;46.85;17.77;;;0.40;99.90;;;;;;5054148;28;20052;-73
2022/12/17 16:21:14;;;;;;;46.28;19.15;;;-0.20;99.90;;;;;;5053667;28;20049;-74
2022/12/17 16:23:40;;;;;;;45.20;17.85;;;0.20;99.90;;;;;;5054315;28;20397;-73
2022/12/17 16:26:07;;;;;;;47.72;17.38;;;-0.90;99.90;;;;;;5052893;28;20048;-73
2022/12/17 16:28:34;;;;;;;48.33;17.75;;;-0.90;99.90;;;;;;5054278;28;20388;-73
2022/12/17 16:31:06;;;;;;;43.33;15.45;;;-0.60;99.90;;;;;;5052845;28;20128;-73
2022/12/17 16:33:34;;;;;;;36.95;14.98;;;-0.50;99.90;;;;;;5053849;28;20043;-71
2022/12/17 16:36:01;;;;;;;47.78;17.33;;;-0.80;99.90;;;;;;5052007;28;20084;-72
2022/12/17 16:38:27;;;;;;;47.17;17.55;;;-1.10;99.90;;;;;;5036614;28;20056;-72
2022/12/17 16:41:01;;;;;;;50.28;16.70;;;0.10;99.90;;;;;;5053542;28;20458;-72
2022/12/17 16:43:31;;;;;;;44.35;16.33;;;-1.00;99.90;;;;;;5052789;28;20098;-72
2022/12/17 16:45:57;;;;;;;47.55;17.92;;;-0.60;99.90;;;;;;5054185;28;20429;-72
2022/12/17 16:48:23;;;;;;;49.97;18.40;;;-1.00;99.90;;;;;;5035650;28;20140;-72
2022/12/17 16:50:49;;;;;;;45.45;18.05;;;-0.90;99.90;;;;;;5052593;28;20084;-74
2022/12/17 16:53:17;;;;;;;43.90;17.23;;;-1.10;99.90;;;;;;5036227;28;20131;-71
2022/12/17 16:55:45;;;;;;;50.40;17.90;;;-0.70;99.90;;;;;;5036282;28;20045;-70
2022/12/17 16:58:12;;;;;;;52.13;19.42;;;-1.10;99.90;;;;;;5054451;28;20044;-74
2022/12/17 17:00:37;;;;;;;50.50;18.35;;;-0.50;99.90;;;;;;5052535;28;20053;-73
2022/12/17 17:03:04;;;;;;;52.80;17.30;;;0.30;99.90;;;;;;5019540;28;20048;-74
2022/12/17 17:05:35;;;;;;;48.85;19.52;;;-0.90;99.90;;;;;;5053384;28;20049;-74
2022/12/17 17:08:02;;;;;;;47.63;18.25;;;-1.10;99.90;;;;;;5053092;28;20650;-74
2022/12/17 17:10:29;;;;;;;45.17;18.42;;;-0.90;99.90;;;;;;5053414;28;20516;-74
2022/12/17 17:12:55;;;;;;;46.47;18.15;;;-0.80;99.90;;;;;;5053130;28;20576;-74
2022/12/17 17:15:21;;;;;;;53.88;18.77;;;-1.30;99.90;;;;;;5053654;28;20052;-74
2022/12/17 17:17:48;;;;;;;41.92;16.95;;;-1.00;99.90;;;;;;5052015;28;20080;-70
2022/12/17 17:20:14;;;;;;;45.92;17.92;;;-0.60;99.90;;;;;;5053662;28;20045;-71
2022/12/17 17:22:40;;;;;;;53.58;19.17;;;-1.10;99.90;;;;;;5051963;28;20067;-71
2022/12/17 17:25:07;;;;;;;56.05;19.00;;;-0.70;99.90;;;;;;5053192;28;20053;-71
2022/12/17 17:27:33;;;;;;;52.33;18.80;;;-1.00;99.90;;;;;;5051522;28;20076;-75
2022/12/17 17:29:58;;;;;;;53.60;19.90;;;-0.40;99.90;;;;;;5053801;28;20045;-75
2022/12/17 17:32:24;;;;;;;56.85;21.48;;;-0.50;99.90;;;;;;5052957;28;20041;-74
2022/12/17 17:34:50;;;;;;;60.53;20.88;;;-1.00;99.90;;;;;;5052985;28;20053;-75
2022/12/17 17:37:16;;;;;;;58.17;21.67;;;-0.90;99.90;;;;;;5053022;28;20040;-76
2022/12/17 17:39:42;;;;;;;60.15;22.25;;;-0.90;99.90;;;;;;5053597;28;20088;-74
2022/12/17 17:42:08;;;;;;;53.65;20.60;;;-1.30;99.90;;;;;;5052965;28;20528;-75
2022/12/17 17:44:34;;;;;;;58.25;22.02;;;-0.50;99.90;;;;;;5053029;28;20045;-75
2022/12/17 17:46:59;;;;;;;53.90;20.90;;;-0.90;99.90;;;;;;5052235;28;20090;-75
2022/12/17 17:49:25;;;;;;;68.57;24.85;;;-0.80;99.90;;;;;;5072767;28;20045;-75
2022/12/17 17:51:51;;;;;;;58.20;23.08;;;-0.80;99.90;;;;;;5056764;28;20063;-75
2022/12/17 17:54:17;;;;;;;55.88;21.15;;;-0.70;99.90;;;;;;5038967;28;20090;-75
2022/12/17 17:56:43;;;;;;;53.42;21.38;;;-0.50;99.90;;;;;;5056624;28;20131;-75
2022/12/17 17:59:18;;;;;;;53.47;20.55;;;-1.10;99.90;;;;;;5022547;28;20053;-75
2022/12/17 18:01:48;;;;;;;45.60;18.58;;;-0.10;99.90;;;;;;5056581;28;20484;-72
2022/12/17 18:04:17;;;;;;;48.65;20.60;;;-1.00;99.90;;;;;;5056874;28;20041;-72
2022/12/17 18:06:44;;;;;;;51.50;22.50;;;-1.20;99.90;;;;;;5056638;28;20449;-72
2022/12/17 18:09:10;;;;;;;52.03;19.42;;;-0.80;99.90;;;;;;5055497;28;20127;-72
2022/12/17 18:11:38;;;;;;;48.83;19.30;;;-0.20;99.90;;;;;;5056694;28;20052;-72
2022/12/17 18:14:06;;;;;;;49.90;18.58;;;-1.10;99.90;;;;;;5056524;28;20063;-74
2022/12/17 18:16:44;;;;;;;51.00;20.48;;;-1.20;99.90;;;;;;5055293;28;20186;-71
2022/12/17 18:19:15;;;;;;;51.45;21.48;;;-1.10;99.90;;;;;;5055288;28;20049;-73
2022/12/17 18:21:42;;;;;;;51.83;20.83;;;-1.20;99.90;;;;;;5055484;28;20053;-72
2022/12/17 18:24:25;;;;;;;52.90;20.55;;;-1.10;99.90;;;;;;5056159;28;20053;-74
2022/12/17 18:26:51;;;;;;;;;;;-0.90;99.90;;;;;;5056533;28;20574;-73
2022/12/17 18:29:27;;;;;;;51.28;19.30;;;-0.40;99.90;;;;;;5055145;28;19925;-73
2022/12/17 18:31:54;;;;;;;46.20;18.50;;;-1.00;99.90;;;;;;5055747;28;20449;-74
2022/12/17 18:34:24;;;;;;;54.08;20.65;;;-0.80;99.90;;;;;;5054753;28;20045;-73
2022/12/17 18:36:49;;;;;;;53.10;20.75;;;-0.80;99.90;;;;;;5055136;28;20049;-73
2022/12/17 18:39:18;;;;;;;53.10;20.83;;;-1.10;99.90;;;;;;5056715;28;20047;-74
2022/12/17 18:44:31;;;;;;;51.75;20.08;;;-0.50;99.90;;;;;;5055124;28;20060;-74
2022/12/17 18:46:57;;;;;;;62.15;22.65;;;-1.20;99.90;;;;;;5056022;28;20489;-75
2022/12/17 18:49:25;;;;;;;57.63;23.50;;;-0.80;99.90;;;;;;5055065;28;20045;-74
2022/12/17 18:51:52;;;;;;;59.03;23.88;;;-0.20;99.90;;;;;;5054946;28;20094;-74
2022/12/17 18:54:22;;;;;;;55.40;21.10;;;-1.10;99.90;;;;;;5055854;28;20087;-74
2022/12/17 18:56:49;;;;;;;65.00;24.05;;;-1.10;99.90;;;;;;5056246;28;20401;-75
2022/12/17 18:59:17;;;;;;;52.33;22.35;;;-1.10;99.90;;;;;;5054928;28;20055;-74
2022/12/17 19:01:44;;;;;;;59.40;23.42;;;-1.20;99.90;;;;;;5038042;28;20049;-74
2022/12/17 19:04:12;;;;;;;61.75;24.35;;;-0.90;99.90;;;;;;5054824;28;20052;-75
2022/12/17 19:06:38;;;;;;;58.50;22.80;;;-0.30;99.90;;;;;;5055774;28;20049;-74
2022/12/17 19:09:05;;;;;;;63.97;25.38;;;-0.20;99.90;;;;;;5055754;28;20365;-75
2022/12/17 19:11:32;;;;;;;62.30;25.83;;;-0.30;99.90;;;;;;5054686;28;20076;-75
2022/12/17 19:13:58;;;;;;;65.53;25.17;;;-1.30;99.90;;;;;;5054351;28;20049;-75
2022/12/17 19:16:26;;;;;;;63.92;23.40;;;-1.30;99.90;;;;;;5037901;28;20060;-74
2022/12/17 19:18:58;;;;;;;64.30;27.05;;;-1.40;99.90;;;;;;5054599;28;20377;-74
2022/12/17 19:21:25;;;;;;;63.75;24.70;;;-1.20;99.90;;;;;;5054666;28;20518;-75
2022/12/17 19:23:56;;;;;;;68.32;26.58;;;-1.40;99.90;;;;;;5055681;28;20045;-74
2022/12/17 19:26:22;;;;;;;67.03;26.48;;;-1.30;99.90;;;;;;5054050;28;20084;-74
2022/12/17 19:28:51;;;;;;;58.38;24.73;;;-0.50;99.90;;;;;;5055062;28;20048;-74
2022/12/17 19:31:18;;;;;;;61.92;25.10;;;-1.40;99.90;;;;;;5037738;28;20114;-74
2022/12/17 19:33:44;;;;;;;64.05;26.83;;;-1.30;99.90;;;;;;5055141;28;20485;-74
2022/12/17 19:36:18;;;;;;;59.92;25.38;;;-0.30;99.90;;;;;;5054950;28;20381;-73
2022/12/17 19:38:45;;;;;;;57.50;26.55;;;-1.40;99.90;;;;;;5055595;28;20553;-74
2022/12/17 19:41:16;;;;;;;60.72;25.92;;;-1.30;99.90;;;;;;5053961;28;20110;-75
2022/12/17 19:43:47;;;;;;;67.28;25.83;;;-1.30;99.90;;;;;;5055035;28;20048;-74
2022/12/17 19:46:17;;;;;;;61.00;24.00;;;-1.10;99.90;;;;;;5055197;28;20045;-74
2022/12/17 19:48:45;;;;;;;71.95;28.23;;;-1.40;99.90;;;;;;5055025;28;20405;-75
2022/12/17 19:51:13;;;;;;;65.63;26.10;;;-1.10;99.90;;;;;;5053893;28;20053;-75
2022/12/17 19:53:40;;;;;;;65.30;26.70;;;-1.30;99.90;;;;;;5054057;28;20056;-75
2022/12/17 19:56:12;;;;;;;68.32;26.40;;;-1.10;99.90;;;;;;5054485;28;20496;-75
2022/12/17 19:58:39;;;;;;;62.20;26.25;;;-1.50;99.90;;;;;;5037950;28;20209;-74
2022/12/17 20:01:09;;;;;;;64.80;25.67;;;-1.00;99.90;;;;;;5054731;28;20049;-74
2022/12/17 20:03:36;;;;;;;71.53;27.98;;;-1.50;99.90;;;;;;5054075;28;20060;-75
2022/12/17 20:06:03;;;;;;;68.70;28.35;;;-0.90;99.90;;;;;;5055681;28;20049;-75
2022/12/17 20:08:30;;;;;;;63.40;27.77;;;-1.20;99.90;;;;;;5037337;28;20056;-74
2022/12/17 20:10:56;;;;;;;64.50;26.42;;;-1.40;99.90;;;;;;5053396;28;20044;-74
2022/12/17 20:13:22;;;;;;;64.43;25.10;;;-1.40;99.90;;;;;;5053573;28;20053;-76
2022/12/17 20:15:47;;;;;;;64.93;26.85;;;-0.20;99.90;;;;;;5053465;28;20481;-75
2022/12/17 20:18:13;;;;;;;62.45;26.17;;;-1.40;99.90;;;;;;5053511;28;20044;-75
2022/12/17 20:20:39;;;;;;;66.50;26.65;;;-1.50;99.90;;;;;;5053678;28;20140;-75
2022/12/17 20:23:05;;;;;;;60.38;25.33;;;-1.60;99.90;;;;;;5053384;28;20448;-73
2022/12/17 20:25:30;;;;;;;62.80;26.85;;;-1.60;99.90;;;;;;5054287;28;20048;-74
2022/12/17 20:27:56;;;;;;;70.93;27.00;;;-1.60;99.90;;;;;;5053425;28;20051;-76
2022/12/17 20:30:22;;;;;;;67.90;26.38;;;-1.50;99.90;;;;;;5036091;28;20076;-76
2022/12/17 20:32:52;;;;;;;66.25;27.70;;;-0.40;99.90;;;;;;5052876;28;20059;-74
2022/12/17 20:35:18;;;;;;;68.47;28.27;;;-0.60;99.90;;;;;;5054135;28;20160;-75
2022/12/17 20:37:44;;;;;;;73.50;34.95;;;-1.50;99.90;;;;;;5052965;28;20048;-75
2022/12/17 20:40:10;;;;;;;71.00;31.92;;;-1.20;99.90;;;;;;5036394;28;20052;-75
2022/12/17 20:42:35;;;;;;;68.90;28.67;;;-1.30;99.90;;;;;;5054215;28;20128;-75
2022/12/17 20:45:01;;;;;;;59.78;25.55;;;0.30;99.90;;;;;;5036559;28;20052;-75
2022/12/17 20:47:27;;;;;;;63.03;25.27;;;-1.50;99.90;;;;;;5053889;28;20049;-75
2022/12/17 20:49:52;;;;;;;61.67;27.33;;;-1.50;99.90;;;;;;5036291;28;20092;-76
2022/12/17 20:52:18;;;;;;;62.00;27.25;;;-1.40;99.90;;;;;;5052814;28;20140;-75
2022/12/17 20:54:44;;;;;;;62.95;27.27;;;-0.60;99.90;;;;;;5035927;28;20479;-77
2022/12/17 20:57:10;;;;;;;59.45;24.92;;;-1.00;99.90;;;;;;5052599;28;20056;-76
2022/12/17 20:59:35;;;;;;;56.33;25.27;;;-1.40;99.90;;;;;;5052533;28;20044;-76
2022/12/17 21:02:01;;;;;;;61.00;27.50;;;-1.50;99.90;;;;;;5053660;28;20104;-75
2022/12/17 21:04:27;;;;;;;64.80;27.10;;;-0.70;99.90;;;;;;5052737;28;20139;-76
2022/12/17 21:06:52;;;;;;;70.80;29.67;;;-1.40;99.90;;;;;;5053118;28;20045;-75
2022/12/17 21:09:21;;;;;;;68.90;27.13;;;-1.20;99.90;;;;;;5052504;28;20396;-77
2022/12/17 21:11:47;;;;;;;65.38;26.13;;;-1.70;99.90;;;;;;5052311;28;20572;-74
2022/12/17 21:14:16;;;;;;;72.22;26.80;;;-1.40;99.90;;;;;;5053353;28;20090;-75
2022/12/17 21:16:42;;;;;;;63.72;27.33;;;-1.10;99.90;;;;;;5053659;28;20465;-75
2022/12/17 21:19:11;;;;;;;73.65;29.27;;;-2.10;99.90;;;;;;5053505;28;20053;-74
2022/12/17 21:21:38;;;;;;;67.45;27.42;;;-1.80;99.90;;;;;;5053162;28;20044;-75
2022/12/17 21:24:05;;;;;;;76.75;26.92;;;-1.50;99.90;;;;;;5053062;28;20060;-75
2022/12/17 21:26:37;;;;;;;71.68;26.55;;;-1.60;99.90;;;;;;5052034;28;20081;-75
2022/12/17 21:29:05;;;;;;;67.07;25.70;;;-1.50;99.90;;;;;;5053992;28;20045;-74
2022/12/17 21:31:34;;;;;;;64.32;26.45;;;-1.50;99.90;;;;;;5052023;28;20128;-75
2022/12/17 21:34:02;;;;;;;68.63;27.10;;;-0.50;99.90;;;;;;5051527;28;20103;-75
2022/12/17 21:36:30;;;;;;;65.22;26.10;;;-1.60;99.90;;;;;;5052118;28;20041;-75
2022/12/17 21:38:57;;;;;;;65.35;26.05;;;-1.40;99.90;;;;;;5051730;28;20057;-75
2022/12/17 21:41:25;;;;;;;66.57;24.92;;;-1.60;99.90;;;;;;5035394;28;20060;-74
2022/12/17 21:43:56;;;;;;;67.05;26.42;;;-1.60;99.90;;;;;;5051920;28;20053;-74
2022/12/17 21:46:22;;;;;;;69.57;25.58;;;-0.50;99.90;;;;;;5036308;28;20127;-73
2022/12/17 21:48:48;;;;;;;61.38;26.85;;;-1.70;99.90;;;;;;5052806;28;20065;-73
2022/12/17 21:51:14;;;;;;;65.50;25.05;;;-1.40;99.90;;;;;;5051200;28;20404;-73
2022/12/17 21:53:42;;;;;;;65.82;25.95;;;-1.60;99.90;;;;;;5051645;28;20052;-74
2022/12/17 21:56:14;;;;;;;63.67;25.92;;;0.50;99.90;;;;;;5051728;28;20085;-73
2022/12/17 21:58:41;;;;;;;71.38;28.15;;;-1.60;99.90;;;;;;5053285;28;20045;-73
2022/12/17 22:01:15;;;;;;;70.05;26.58;;;-1.40;99.90;;;;;;5051771;28;20098;-74
2022/12/17 22:03:41;;;;;;;68.10;27.35;;;-1.70;99.90;;;;;;5019728;28;20073;-75
2022/12/17 22:06:10;;;;;;;64.32;26.20;;;-0.50;99.90;;;;;;5052895;28;20045;-75
2022/12/17 22:08:36;;;;;;;69.35;27.23;;;-1.80;99.90;;;;;;5053004;28;20045;-75
2022/12/17 22:11:07;;;;;;;66.93;26.30;;;-1.70;99.90;;;;;;5051713;28;20040;-74
2022/12/17 22:16:17;;;;;;;63.95;26.10;;;-1.50;99.90;;;;;;5053481;28;20079;-74
2022/12/17 22:18:43;;;;;;;61.67;24.55;;;-1.70;99.90;;;;;;5052750;28;20045;-73
2022/12/17 22:21:08;;;;;;;67.32;25.33;;;-1.10;99.90;;;;;;5035775;28;20060;-73
2022/12/17 22:23:34;;;;;;;63.55;26.23;;;-1.70;99.90;;;;;;5052724;28;20056;-74
2022/12/17 22:26:00;;;;;;;59.78;24.88;;;-1.60;99.90;;;;;;5051641;28;20073;-73
2022/12/17 22:28:25;;;;;;;62.05;24.95;;;-1.50;99.90;;;;;;5052909;28;20044;-73
2022/12/17 22:33:35;;;;;;;63.97;25.85;;;-2.00;99.90;;;;;;5052569;28;20055;-73
2022/12/17 22:36:01;;;;;;;70.18;25.67;;;-1.10;99.90;;;;;;5055836;28;20041;-73
2022/12/17 22:38:27;;;;;;;61.75;24.88;;;-1.50;99.90;;;;;;5055102;28;20465;-73
2022/12/17 22:40:53;;;;;;;73.43;27.88;;;-1.40;99.90;;;;;;5056408;28;20045;-74
2022/12/17 22:43:31;;;;;;;72.32;24.15;;;0.20;99.90;;;;;;5056338;28;20045;-73
2022/12/17 22:46:04;;;;;;;59.88;22.75;;;-1.90;99.90;;;;;;5056556;28;20045;-73
2022/12/17 22:48:31;;;;;;;66.13;25.50;;;-1.80;99.90;;;;;;5056242;28;20136;-73
2022/12/17 22:50:57;;;;;;;62.75;26.55;;;-1.80;99.90;;;;;;5056046;28;20049;-75
2022/12/17 22:53:23;;;;;;;63.67;23.92;;;-1.80;99.90;;;;;;5056292;28;20045;-74
2022/12/17 22:55:50;;;;;;;64.97;24.95;;;-1.60;99.90;;;;;;5056184;28;20424;-74
2022/12/17 22:58:17;;;;;;;63.17;24.83;;;-1.80;99.90;;;;;;5056393;28;20044;-74
2022/12/17 23:00:43;;;;;;;67.38;25.38;;;-2.00;99.90;;;;;;5056341;28;20041;-75
2022/12/17 23:03:09;;;;;;;73.50;27.45;;;-1.30;99.90;;;;;;5055347;28;20055;-75
2022/12/17 23:05:35;;;;;;;63.92;26.00;;;-1.60;99.90;;;;;;5055497;28;20033;-74
2022/12/17 23:08:00;;;;;;;71.28;25.52;;;-1.40;99.90;;;;;;5054797;28;20049;-74
2022/12/17 23:10:27;;;;;;;67.55;24.45;;;-0.20;99.90;;;;;;5056074;28;20092;-74
2022/12/17 23:12:54;;;;;;;72.50;26.98;;;-1.90;99.90;;;;;;5054945;28;20049;-74
2022/12/17 23:15:25;;;;;;;67.13;26.15;;;-0.60;99.90;;;;;;5054713;28;20056;-74
2022/12/17 23:17:53;;;;;;;67.70;25.60;;;-1.00;99.90;;;;;;5038622;28;20056;-74
2022/12/17 23:20:19;;;;;;;66.47;25.27;;;-1.90;99.90;;;;;;5054909;28;20053;-74
2022/12/17 23:22:48;;;;;;;65.35;25.75;;;-1.80;99.90;;;;;;5055887;28;20041;-74
2022/12/17 23:25:14;;;;;;;68.53;28.42;;;-2.00;99.90;;;;;;5055741;28;20052;-74
2022/12/17 23:27:39;;;;;;;68.35;27.23;;;-1.90;99.90;;;;;;5055829;28;20037;-73
2022/12/17 23:30:06;;;;;;;66.05;26.13;;;-1.10;99.90;;;;;;5055696;28;20475;-73
2022/12/17 23:32:32;;;;;;;76.70;28.35;;;-1.80;99.90;;;;;;5038260;28;20063;-74
2022/12/17 23:35:03;;;;;;;69.93;26.35;;;-2.20;99.90;;;;;;5055650;28;20052;-74
2022/12/17 23:37:29;;;;;;;63.10;25.60;;;-2.00;99.90;;;;;;5055229;28;20524;-74
2022/12/17 23:39:55;;;;;;;67.05;25.55;;;-0.90;99.90;;;;;;5054504;28;20076;-74
2022/12/17 23:42:20;;;;;;;71.57;28.75;;;-1.00;99.90;;;;;;5055124;28;20075;-74
2022/12/17 23:44:46;;;;;;;63.78;25.45;;;-1.80;99.90;;;;;;5055177;28;20045;-74
2022/12/17 23:47:12;;;;;;;66.55;25.52;;;-1.20;99.90;;;;;;5053375;28;20060;-74
2022/12/17 23:49:38;;;;;;;63.13;24.52;;;-1.50;99.90;;;;;;5055385;28;20139;-74
2022/12/17 23:52:03;;;;;;;61.33;26.08;;;-1.90;99.90;;;;;;5054902;28;20123;-73
2022/12/17 23:54:29;;;;;;;62.80;25.27;;;-2.20;99.90;;;;;;5053656;28;20041;-74
2022/12/17 23:56:55;;;;;;;62.70;24.58;;;-1.60;99.90;;;;;;5053261;28;20056;-74
2022/12/17 23:59:22;;;;;;;59.88;25.25;;;-0.70;99.90;;;;;;5053779;28;20120;-74
